Terminal Aerodrome Forecast
Issued by NWS

Home | Current Version | Previous Version | Graphics & Text | Print | Product List | Glossary On
Versions: 1 2 3 4 5 6 7 8 9 10 11 12 13 14 15 16 17 18
000
FTUS43 KICT 241100
TAFHUT
TAF
KHUT 241138Z 2412/2512 15005KT P6SM SKC
     FM241500 16010KT P6SM SKC
     FM241700 17012G20KT P6SM FEW060
     FM241900 18018G25KT P6SM FEW070
     FM250000 16012KT P6SM SCT250=

USA.gov is the U.S. government's official web portal to all federal, state and local government web resources and services.